sensor_id;sensor_type;location;lat;lon;timestamp;pressure;altitude;pressure_sealevel;temperature;humidity
78932;BME280;68331;53.362;55.932;2023-04-19T00:02:08;101225.69;;;8.40;37.43
78932;BME280;68331;53.362;55.932;2023-04-19T00:04:34;101221.28;;;8.52;37.00
78932;BME280;68331;53.362;55.932;2023-04-19T00:07:03;101210.75;;;8.54;37.19
78932;BME280;68331;53.362;55.932;2023-04-19T00:09:29;101225.63;;;8.64;36.83
78932;BME280;68331;53.362;55.932;2023-04-19T00:11:55;101226.53;;;8.58;37.20
78932;BME280;68331;53.362;55.932;2023-04-19T00:14:22;101235.28;;;8.57;37.05
78932;BME280;68331;53.362;55.932;2023-04-19T00:16:48;101233.53;;;8.56;37.24
78932;BME280;68331;53.362;55.932;2023-04-19T00:19:14;101237.06;;;8.51;37.47
78932;BME280;68331;53.362;55.932;2023-04-19T00:21:40;101231.81;;;8.49;37.81
78932;BME280;68331;53.362;55.932;2023-04-19T00:24:06;101228.31;;;8.46;37.72
78932;BME280;68331;53.362;55.932;2023-04-19T00:26:32;101237.91;;;8.37;38.10
78932;BME280;68331;53.362;55.932;2023-04-19T00:28:58;101233.53;;;8.26;38.19
78932;BME280;68331;53.362;55.932;2023-04-19T00:31:24;101228.25;;;8.16;38.31
78932;BME280;68331;53.362;55.932;2023-04-19T00:33:50;101221.25;;;8.12;38.40
78932;BME280;68331;53.362;55.932;2023-04-19T00:36:17;101227.41;;;8.14;38.38
78932;BME280;68331;53.362;55.932;2023-04-19T00:38:46;101211.63;;;8.11;38.58
78932;BME280;68331;53.362;55.932;2023-04-19T00:41:12;101229.16;;;8.28;38.42
78932;BME280;68331;53.362;55.932;2023-04-19T00:43:38;101228.28;;;8.30;38.20
78932;BME280;68331;53.362;55.932;2023-04-19T00:46:06;101220.38;;;8.35;38.34
78932;BME280;68331;53.362;55.932;2023-04-19T00:48:33;101205.47;;;8.34;38.24
78932;BME280;68331;53.362;55.932;2023-04-19T00:51:03;101215.13;;;8.52;38.02
78932;BME280;68331;53.362;55.932;2023-04-19T00:53:30;101222.13;;;8.60;38.10
78932;BME280;68331;53.362;55.932;2023-04-19T00:55:56;101216.88;;;8.60;38.41
78932;BME280;68331;53.362;55.932;2023-04-19T00:58:25;101214.25;;;8.60;38.44
78932;BME280;68331;53.362;55.932;2023-04-19T01:00:53;101216.00;;;8.48;38.73
78932;BME280;68331;53.362;55.932;2023-04-19T01:03:19;101211.63;;;8.39;38.83
78932;BME280;68331;53.362;55.932;2023-04-19T01:05:45;101221.28;;;8.43;38.86
78932;BME280;68331;53.362;55.932;2023-04-19T01:08:12;101219.50;;;8.51;38.60
78932;BME280;68331;53.362;55.932;2023-04-19T01:10:38;101222.13;;;8.64;38.36
78932;BME280;68331;53.362;55.932;2023-04-19T01:13:04;101213.34;;;8.66;38.17
78932;BME280;68331;53.362;55.932;2023-04-19T01:15:30;101212.50;;;8.63;38.27
78932;BME280;68331;53.362;55.932;2023-04-19T01:17:57;101216.03;;;8.52;38.81
78932;BME280;68331;53.362;55.932;2023-04-19T01:20:23;101215.16;;;8.46;39.00
78932;BME280;68331;53.362;55.932;2023-04-19T01:22:49;101218.66;;;8.49;38.94
78932;BME280;68331;53.362;55.932;2023-04-19T01:25:15;101224.78;;;8.59;38.67
78932;BME280;68331;53.362;55.932;2023-04-19T01:27:42;101228.28;;;8.69;38.44
78932;BME280;68331;53.362;55.932;2023-04-19T01:30:09;101230.00;;;8.76;38.03
78932;BME280;68331;53.362;55.932;2023-04-19T01:32:35;101233.53;;;8.75;37.94
78932;BME280;68331;53.362;55.932;2023-04-19T01:35:01;101229.13;;;8.74;38.01
78932;BME280;68331;53.362;55.932;2023-04-19T01:37:33;101231.75;;;8.72;38.38
78932;BME280;68331;53.362;55.932;2023-04-19T01:40:06;101235.28;;;8.68;38.50
78932;BME280;68331;53.362;55.932;2023-04-19T01:42:32;101226.50;;;8.69;38.30
78932;BME280;68331;53.362;55.932;2023-04-19T01:44:59;101235.28;;;8.64;38.36
78932;BME280;68331;53.362;55.932;2023-04-19T01:47:26;101230.03;;;8.59;38.52
78932;BME280;68331;53.362;55.932;2023-04-19T01:49:52;101231.81;;;8.52;38.70
78932;BME280;68331;53.362;55.932;2023-04-19T01:52:18;101227.41;;;8.50;38.78
78932;BME280;68331;53.362;55.932;2023-04-19T01:54:47;101230.03;;;8.51;38.74
78932;BME280;68331;53.362;55.932;2023-04-19T01:57:14;101235.28;;;8.54;38.65
78932;BME280;68331;53.362;55.932;2023-04-19T01:59:41;101238.78;;;8.55;38.71
78932;BME280;68331;53.362;55.932;2023-04-19T02:02:07;101232.66;;;8.57;38.33
78932;BME280;68331;53.362;55.932;2023-04-19T02:04:34;101227.38;;;8.67;38.19
78932;BME280;68331;53.362;55.932;2023-04-19T02:07:00;101233.50;;;8.79;38.31
78932;BME280;68331;53.362;55.932;2023-04-19T02:09:28;101236.13;;;8.87;38.00
78932;BME280;68331;53.362;55.932;2023-04-19T02:11:54;101235.22;;;8.93;38.12
78932;BME280;68331;53.362;55.932;2023-04-19T02:14:21;101229.94;;;8.93;37.80
78932;BME280;68331;53.362;55.932;2023-04-19T02:16:47;101233.44;;;8.93;38.01
78932;BME280;68331;53.362;55.932;2023-04-19T02:19:13;101225.56;;;8.93;38.02
78932;BME280;68331;53.362;55.932;2023-04-19T02:21:39;101234.31;;;8.98;38.00
78932;BME280;68331;53.362;55.932;2023-04-19T02:24:06;101236.94;;;9.11;37.60
78932;BME280;68331;53.362;55.932;2023-04-19T02:26:32;101236.00;;;9.24;37.55
78932;BME280;68331;53.362;55.932;2023-04-19T02:28:58;101237.72;;;9.25;37.67
78932;BME280;68331;53.362;55.932;2023-04-19T02:31:23;101229.84;;;9.26;37.57
78932;BME280;68331;53.362;55.932;2023-04-19T02:33:50;101232.47;;;9.22;37.64
78932;BME280;68331;53.362;55.932;2023-04-19T02:36:16;101223.69;;;9.29;37.76
78932;BME280;68331;53.362;55.932;2023-04-19T02:38:42;101233.25;;;9.47;37.63
78932;BME280;68331;53.362;55.932;2023-04-19T02:41:08;101224.31;;;9.72;36.88
78932;BME280;68331;53.362;55.932;2023-04-19T02:43:38;101221.56;;;9.94;36.59
78932;BME280;68331;53.362;55.932;2023-04-19T02:46:04;101223.25;;;10.01;36.09
78932;BME280;68331;53.362;55.932;2023-04-19T02:48:30;101217.22;;;9.84;36.20
78932;BME280;68331;53.362;55.932;2023-04-19T02:50:56;101223.34;;;9.90;36.29
78932;BME280;68331;53.362;55.932;2023-04-19T02:53:22;101213.66;;;9.91;36.06
78932;BME280;68331;53.362;55.932;2023-04-19T02:55:49;101208.47;;;9.78;36.31
78932;BME280;68331;53.362;55.932;2023-04-19T02:58:18;101229.66;;;9.60;36.92
78932;BME280;68331;53.362;55.932;2023-04-19T03:01:16;101226.13;;;9.67;36.97
78932;BME280;68331;53.362;55.932;2023-04-19T03:03:42;101226.97;;;9.69;36.53
78932;BME280;68331;53.362;55.932;2023-04-19T03:06:08;101232.28;;;9.68;36.78
78932;BME280;68331;53.362;55.932;2023-04-19T03:08:35;101234.06;;;9.64;37.11
78932;BME280;68331;53.362;55.932;2023-04-19T03:11:01;101225.28;;;9.61;36.91
78932;BME280;68331;53.362;55.932;2023-04-19T03:13:29;101211.16;;;9.69;37.10
78932;BME280;68331;53.362;55.932;2023-04-19T03:15:55;101228.69;;;9.75;36.91
78932;BME280;68331;53.362;55.932;2023-04-19T03:18:21;101223.19;;;10.07;36.52
78932;BME280;68331;53.362;55.932;2023-04-19T03:20:47;101223.91;;;10.32;36.09
78932;BME280;68331;53.362;55.932;2023-04-19T03:23:14;101224.81;;;10.31;35.91
78932;BME280;68331;53.362;55.932;2023-04-19T03:25:40;101226.50;;;10.38;36.20
78932;BME280;68331;53.362;55.932;2023-04-19T03:28:18;101232.06;;;10.97;35.17
78932;BME280;68331;53.362;55.932;2023-04-19T03:31:13;101220.81;;;12.14;33.06
78932;BME280;68331;53.362;55.932;2023-04-19T03:33:40;101225.59;;;12.93;31.82
78932;BME280;68331;53.362;55.932;2023-04-19T03:36:08;101222.25;;;14.41;29.65
78932;BME280;68331;53.362;55.932;2023-04-19T03:38:35;101222.34;;;15.05;28.09
78932;BME280;68331;53.362;55.932;2023-04-19T03:41:02;101217.47;;;16.09;26.75
78932;BME280;68331;53.362;55.932;2023-04-19T03:43:33;101204.56;;;17.00;25.48
78932;BME280;68331;53.362;55.932;2023-04-19T03:45:59;101198.38;;;17.46;24.57
78932;BME280;68331;53.362;55.932;2023-04-19T03:48:25;101196.81;;;17.86;24.18
78932;BME280;68331;53.362;55.932;2023-04-19T03:50:52;101196.53;;;17.94;23.76
78932;BME280;68331;53.362;55.932;2023-04-19T03:53:19;101204.56;;;18.14;23.45
78932;BME280;68331;53.362;55.932;2023-04-19T03:55:45;101203.06;;;17.16;24.32
78932;BME280;68331;53.362;55.932;2023-04-19T03:58:11;101199.75;;;16.34;25.58
78932;BME280;68331;53.362;55.932;2023-04-19T04:00:48;101204.78;;;16.93;25.07
78932;BME280;68331;53.362;55.932;2023-04-19T04:03:15;101193.25;;;18.29;22.99
78932;BME280;68331;53.362;55.932;2023-04-19T04:05:41;101197.38;;;19.37;21.46
78932;BME280;68331;53.362;55.932;2023-04-19T04:08:08;101207.38;;;20.79;19.98
78932;BME280;68331;53.362;55.932;2023-04-19T04:10:34;101198.56;;;22.67;18.22
78932;BME280;68331;53.362;55.932;2023-04-19T04:13:00;101188.09;;;24.04;17.00
78932;BME280;68331;53.362;55.932;2023-04-19T04:15:36;101190.50;;;23.53;17.00
78932;BME280;68331;53.362;55.932;2023-04-19T04:18:04;101188.59;;;22.39;17.75
78932;BME280;68331;53.362;55.932;2023-04-19T04:20:30;101186.44;;;23.60;16.95
78932;BME280;68331;53.362;55.932;2023-04-19T04:23:03;101191.22;;;22.99;17.27
78932;BME280;68331;53.362;55.932;2023-04-19T04:25:29;101189.66;;;24.33;16.28
78932;BME280;68331;53.362;55.932;2023-04-19T04:28:05;101186.28;;;25.46;15.11
78932;BME280;68331;53.362;55.932;2023-04-19T04:30:32;101186.53;;;24.79;15.46
78932;BME280;68331;53.362;55.932;2023-04-19T04:33:01;101177.03;;;23.53;16.47
78932;BME280;68331;53.362;55.932;2023-04-19T04:35:27;101191.16;;;22.10;17.58
78932;BME280;68331;53.362;55.932;2023-04-19T04:38:02;101188.31;;;22.88;17.07
78932;BME280;68331;53.362;55.932;2023-04-19T04:40:29;101183.22;;;23.40;16.54
78932;BME280;68331;53.362;55.932;2023-04-19T04:42:55;101188.66;;;22.67;17.46
78932;BME280;68331;53.362;55.932;2023-04-19T04:45:22;101196.00;;;20.91;18.91
78932;BME280;68331;53.362;55.932;2023-04-19T04:47:49;101189.94;;;20.70;19.30
78932;BME280;68331;53.362;55.932;2023-04-19T04:50:16;101187.63;;;22.40;17.54
78932;BME280;68331;53.362;55.932;2023-04-19T04:52:43;101189.09;;;22.45;17.32
78932;BME280;68331;53.362;55.932;2023-04-19T04:55:21;101184.84;;;23.29;16.63
78932;BME280;68331;53.362;55.932;2023-04-19T04:57:48;101191.69;;;23.34;16.49
78932;BME280;68331;53.362;55.932;2023-04-19T05:00:21;101181.97;;;24.42;15.85
78932;BME280;68331;53.362;55.932;2023-04-19T05:02:58;101184.59;;;25.20;15.18
78932;BME280;68331;53.362;55.932;2023-04-19T05:05:24;101176.94;;;24.35;15.05
78932;BME280;68331;53.362;55.932;2023-04-19T05:07:51;101179.72;;;24.34;15.79
78932;BME280;68331;53.362;55.932;2023-04-19T05:10:17;101181.75;;;23.49;15.93
78932;BME280;68331;53.362;55.932;2023-04-19T05:12:47;101178.22;;;23.49;15.76
78932;BME280;68331;53.362;55.932;2023-04-19T05:15:14;101176.44;;;23.76;16.37
78932;BME280;68331;53.362;55.932;2023-04-19T05:17:47;101166.84;;;24.12;15.94
78932;BME280;68331;53.362;55.932;2023-04-19T05:20:14;101181.34;;;25.27;15.41
78932;BME280;68331;53.362;55.932;2023-04-19T05:22:41;101171.72;;;26.32;14.77
78932;BME280;68331;53.362;55.932;2023-04-19T05:25:09;101165.84;;;28.07;13.01
78932;BME280;68331;53.362;55.932;2023-04-19T05:27:36;101162.69;;;29.47;12.31
78932;BME280;68331;53.362;55.932;2023-04-19T05:30:03;101171.28;;;30.51;11.46
78932;BME280;68331;53.362;55.932;2023-04-19T05:32:31;101174.13;;;28.59;11.71
78932;BME280;68331;53.362;55.932;2023-04-19T05:35:00;101173.38;;;27.04;12.79
78932;BME280;68331;53.362;55.932;2023-04-19T05:37:30;101175.63;;;25.19;15.18
78932;BME280;68331;53.362;55.932;2023-04-19T05:39:56;101176.50;;;23.33;16.95
78932;BME280;68331;53.362;55.932;2023-04-19T05:42:24;101172.06;;;22.75;17.10
78932;BME280;68331;53.362;55.932;2023-04-19T05:44:50;101166.16;;;22.54;17.30
78932;BME280;68331;53.362;55.932;2023-04-19T05:47:16;101164.38;;;22.69;17.05
78932;BME280;68331;53.362;55.932;2023-04-19T05:49:57;101170.41;;;22.72;17.16
78932;BME280;68331;53.362;55.932;2023-04-19T05:52:33;101166.22;;;23.81;16.51
78932;BME280;68331;53.362;55.932;2023-04-19T05:55:00;101160.47;;;25.29;15.21
78932;BME280;68331;53.362;55.932;2023-04-19T05:57:28;101149.53;;;25.68;14.49
78932;BME280;68331;53.362;55.932;2023-04-19T05:59:54;101156.47;;;25.96;14.61
78932;BME280;68331;53.362;55.932;2023-04-19T06:02:23;101163.81;;;25.33;15.17
78932;BME280;68331;53.362;55.932;2023-04-19T06:04:49;101159.81;;;25.39;14.90
78932;BME280;68331;53.362;55.932;2023-04-19T06:07:16;101143.28;;;27.63;12.98
78932;BME280;68331;53.362;55.932;2023-04-19T06:09:43;101138.50;;;29.54;11.46
78932;BME280;68331;53.362;55.932;2023-04-19T06:12:09;101142.75;;;30.45;10.64
78932;BME280;68331;53.362;55.932;2023-04-19T06:14:36;101137.63;;;32.70;9.33
78932;BME280;68331;53.362;55.932;2023-04-19T06:17:02;101132.59;;;35.38;8.15
78932;BME280;68331;53.362;55.932;2023-04-19T06:19:28;101133.41;;;35.55;7.61
78932;BME280;68331;53.362;55.932;2023-04-19T06:21:54;101140.72;;;36.84;6.36
78932;BME280;68331;53.362;55.932;2023-04-19T06:24:21;101123.53;;;38.42;5.75
78932;BME280;68331;53.362;55.932;2023-04-19T06:26:47;101127.69;;;38.94;5.23
78932;BME280;68331;53.362;55.932;2023-04-19T06:29:14;101129.69;;;39.62;5.48
78932;BME280;68331;53.362;55.932;2023-04-19T06:31:40;101120.66;;;40.61;4.81
78932;BME280;68331;53.362;55.932;2023-04-19T06:34:06;101117.91;;;41.64;3.83
78932;BME280;68331;53.362;55.932;2023-04-19T06:36:32;101128.50;;;41.74;3.93
78932;BME280;68331;53.362;55.932;2023-04-19T06:38:58;101126.59;;;38.60;4.86
78932;BME280;68331;53.362;55.932;2023-04-19T06:41:24;101133.25;;;35.01;7.04
78932;BME280;68331;53.362;55.932;2023-04-19T06:43:50;101122.66;;;35.68;6.66
78932;BME280;68331;53.362;55.932;2023-04-19T06:46:16;101133.38;;;34.11;7.84
78932;BME280;68331;53.362;55.932;2023-04-19T06:48:43;101128.34;;;33.65;7.86
78932;BME280;68331;53.362;55.932;2023-04-19T06:51:09;101122.53;;;35.30;6.70
78932;BME280;68331;53.362;55.932;2023-04-19T06:53:35;101130.09;;;31.01;8.33
78932;BME280;68331;53.362;55.932;2023-04-19T06:56:02;101133.56;;;28.25;10.76
78932;BME280;68331;53.362;55.932;2023-04-19T06:58:31;101125.09;;;31.79;8.66
78932;BME280;68331;53.362;55.932;2023-04-19T07:00:58;101119.31;;;34.46;7.00
78932;BME280;68331;53.362;55.932;2023-04-19T07:03:24;101125.31;;;34.42;7.08
78932;BME280;68331;53.362;55.932;2023-04-19T07:05:50;101125.16;;;34.11;6.98
78932;BME280;68331;53.362;55.932;2023-04-19T07:08:22;101116.97;;;30.01;9.23
78932;BME280;68331;53.362;55.932;2023-04-19T07:10:48;101125.44;;;25.65;11.85
78932;BME280;68331;53.362;55.932;2023-04-19T07:13:14;101117.31;;;24.66;13.07
78932;BME280;68331;53.362;55.932;2023-04-19T07:15:40;101125.63;;;24.75;13.16
78932;BME280;68331;53.362;55.932;2023-04-19T07:18:06;101115.50;;;24.01;13.17
78932;BME280;68331;53.362;55.932;2023-04-19T07:20:34;101104.66;;;23.34;14.05
78932;BME280;68331;53.362;55.932;2023-04-19T07:23:00;101112.47;;;23.10;14.28
78932;BME280;68331;53.362;55.932;2023-04-19T07:25:26;101125.06;;;22.66;15.43
78932;BME280;68331;53.362;55.932;2023-04-19T07:27:53;101125.38;;;22.32;15.27
78932;BME280;68331;53.362;55.932;2023-04-19T07:30:19;101121.22;;;21.96;15.53
78932;BME280;68331;53.362;55.932;2023-04-19T07:32:45;101118.00;;;21.43;16.23
78932;BME280;68331;53.362;55.932;2023-04-19T07:35:11;101116.44;;;21.39;15.98
78932;BME280;68331;53.362;55.932;2023-04-19T07:37:37;101111.25;;;21.36;16.29
78932;BME280;68331;53.362;55.932;2023-04-19T07:40:03;101120.03;;;21.06;16.30
78932;BME280;68331;53.362;55.932;2023-04-19T07:42:30;101121.13;;;20.01;17.00
78932;BME280;68331;53.362;55.932;2023-04-19T07:44:56;101114.53;;;19.72;17.30
78932;BME280;68331;53.362;55.932;2023-04-19T07:47:22;101105.50;;;20.09;16.60
78932;BME280;68331;53.362;55.932;2023-04-19T07:49:52;101098.47;;;20.59;16.16
78932;BME280;68331;53.362;55.932;2023-04-19T07:52:18;101098.47;;;21.24;15.93
78932;BME280;68331;53.362;55.932;2023-04-19T07:54:44;101086.81;;;21.41;15.55
78932;BME280;68331;53.362;55.932;2023-04-19T07:57:10;101096.06;;;21.67;15.38
78932;BME280;68331;53.362;55.932;2023-04-19T07:59:36;101085.41;;;21.65;15.42
78932;BME280;68331;53.362;55.932;2023-04-19T08:02:02;101092.59;;;21.65;15.17
78932;BME280;68331;53.362;55.932;2023-04-19T08:04:28;101086.03;;;21.54;15.29
78932;BME280;68331;53.362;55.932;2023-04-19T08:06:53;101077.28;;;21.67;15.37
78932;BME280;68331;53.362;55.932;2023-04-19T08:09:19;101087.41;;;21.46;15.63
78932;BME280;68331;53.362;55.932;2023-04-19T08:11:45;101088.53;;;21.10;16.21
78932;BME280;68331;53.362;55.932;2023-04-19T08:14:12;101093.44;;;21.18;16.27
78932;BME280;68331;53.362;55.932;2023-04-19T08:16:38;101088.81;;;21.37;15.78
78932;BME280;68331;53.362;55.932;2023-04-19T08:19:04;101090.69;;;21.19;16.03
78932;BME280;68331;53.362;55.932;2023-04-19T08:21:30;101080.28;;;20.97;16.50
78932;BME280;68331;53.362;55.932;2023-04-19T08:23:56;101079.34;;;21.14;16.40
78932;BME280;68331;53.362;55.932;2023-04-19T08:26:22;101082.19;;;21.11;16.18
78932;BME280;68331;53.362;55.932;2023-04-19T08:28:48;101090.16;;;20.63;16.85
78932;BME280;68331;53.362;55.932;2023-04-19T08:31:15;101090.28;;;20.10;17.48
78932;BME280;68331;53.362;55.932;2023-04-19T08:33:41;101093.03;;;19.73;17.74
78932;BME280;68331;53.362;55.932;2023-04-19T08:36:08;101089.81;;;19.48;18.05
78932;BME280;68331;53.362;55.932;2023-04-19T08:38:34;101084.00;;;19.21;18.28
78932;BME280;68331;53.362;55.932;2023-04-19T08:41:00;101083.78;;;19.07;18.49
78932;BME280;68331;53.362;55.932;2023-04-19T08:43:29;101093.19;;;18.96;18.61
78932;BME280;68331;53.362;55.932;2023-04-19T08:45:58;101079.72;;;18.98;18.57
78932;BME280;68331;53.362;55.932;2023-04-19T08:48:26;101082.81;;;19.08;18.52
78932;BME280;68331;53.362;55.932;2023-04-19T08:50:53;101083.91;;;19.03;18.47
78932;BME280;68331;53.362;55.932;2023-04-19T08:53:20;101086.97;;;18.96;18.62
78932;BME280;68331;53.362;55.932;2023-04-19T08:55:47;101084.44;;;18.93;18.36
78932;BME280;68331;53.362;55.932;2023-04-19T08:58:14;101085.28;;;18.93;18.57
78932;BME280;68331;53.362;55.932;2023-04-19T09:00:40;101086.72;;;18.81;18.82
78932;BME280;68331;53.362;55.932;2023-04-19T09:03:07;101082.94;;;18.86;18.66
78932;BME280;68331;53.362;55.932;2023-04-19T09:05:36;101075.88;;;19.03;18.62
78932;BME280;68331;53.362;55.932;2023-04-19T09:08:31;101074.53;;;19.50;18.34
78932;BME280;68331;53.362;55.932;2023-04-19T09:10:59;101081.06;;;19.81;18.01
78932;BME280;68331;53.362;55.932;2023-04-19T09:13:27;101085.19;;;19.88;17.71
78932;BME280;68331;53.362;55.932;2023-04-19T09:15:54;101070.81;;;19.35;18.23
78932;BME280;68331;53.362;55.932;2023-04-19T09:18:22;101077.91;;;18.79;19.01
78932;BME280;68331;53.362;55.932;2023-04-19T09:20:52;101077.13;;;18.96;18.65
78932;BME280;68331;53.362;55.932;2023-04-19T09:23:25;101071.72;;;19.53;18.24
78932;BME280;68331;53.362;55.932;2023-04-19T09:25:58;101053.50;;;19.96;17.98
78932;BME280;68331;53.362;55.932;2023-04-19T09:28:30;101066.94;;;20.29;17.42
78932;BME280;68331;53.362;55.932;2023-04-19T09:30:57;101064.38;;;19.93;17.63
78932;BME280;68331;53.362;55.932;2023-04-19T09:33:49;101059.25;;;19.52;17.99
78932;BME280;68331;53.362;55.932;2023-04-19T09:36:29;101060.22;;;19.51;17.74
78932;BME280;68331;53.362;55.932;2023-04-19T09:38:55;101048.00;;;19.45;18.09
78932;BME280;68331;53.362;55.932;2023-04-19T09:41:22;101048.63;;;19.50;17.83
78932;BME280;68331;53.362;55.932;2023-04-19T09:43:48;101046.81;;;19.34;18.17
78932;BME280;68331;53.362;55.932;2023-04-19T09:46:34;101048.94;;;19.08;18.13
78932;BME280;68331;53.362;55.932;2023-04-19T09:51:40;101039.25;;;19.05;18.29
78932;BME280;68331;53.362;55.932;2023-04-19T09:54:10;101045.16;;;19.31;18.05
78932;BME280;68331;53.362;55.932;2023-04-19T09:56:36;101042.91;;;19.22;18.27
78932;BME280;68331;53.362;55.932;2023-04-19T09:59:03;101032.53;;;18.97;18.50
78932;BME280;68331;53.362;55.932;2023-04-19T10:01:55;101035.63;;;18.88;18.39
78932;BME280;68331;53.362;55.932;2023-04-19T10:04:24;101029.75;;;19.17;18.20
78932;BME280;68331;53.362;55.932;2023-04-19T10:06:53;101031.84;;;19.83;17.76
78932;BME280;68331;53.362;55.932;2023-04-19T10:09:20;101012.41;;;20.63;16.99
78932;BME280;68331;53.362;55.932;2023-04-19T10:11:48;101005.91;;;21.15;15.99
78932;BME280;68331;53.362;55.932;2023-04-19T10:14:15;101018.56;;;20.48;16.67
78932;BME280;68331;53.362;55.932;2023-04-19T10:16:42;101023.31;;;20.10;17.15
78932;BME280;68331;53.362;55.932;2023-04-19T10:19:10;101009.22;;;19.71;17.41
78932;BME280;68331;53.362;55.932;2023-04-19T10:21:36;101011.28;;;19.66;17.66
78932;BME280;68331;53.362;55.932;2023-04-19T10:24:04;101011.16;;;19.50;17.68
78932;BME280;68331;53.362;55.932;2023-04-19T10:27:10;101011.22;;;19.49;17.75
78932;BME280;68331;53.362;55.932;2023-04-19T10:32:18;100996.78;;;19.70;17.30
78932;BME280;68331;53.362;55.932;2023-04-19T10:34:44;101003.19;;;19.85;17.11
78932;BME280;68331;53.362;55.932;2023-04-19T10:37:12;100996.88;;;20.19;16.69
78932;BME280;68331;53.362;55.932;2023-04-19T10:39:43;100993.28;;;20.70;16.28
78932;BME280;68331;53.362;55.932;2023-04-19T10:42:09;100985.84;;;21.22;15.91
78932;BME280;68331;53.362;55.932;2023-04-19T10:44:35;100984.31;;;21.78;15.62
78932;BME280;68331;53.362;55.932;2023-04-19T10:47:04;100980.41;;;21.84;15.40
78932;BME280;68331;53.362;55.932;2023-04-19T10:49:30;100979.94;;;21.92;15.28
78932;BME280;68331;53.362;55.932;2023-04-19T10:51:56;100983.03;;;22.00;15.26
78932;BME280;68331;53.362;55.932;2023-04-19T10:54:32;100982.69;;;21.76;15.61
78932;BME280;68331;53.362;55.932;2023-04-19T10:57:00;100979.34;;;21.42;15.51
78932;BME280;68331;53.362;55.932;2023-04-19T10:59:38;100978.38;;;21.27;15.84
78932;BME280;68331;53.362;55.932;2023-04-19T11:07:16;100983.38;;;21.49;15.07
78932;BME280;68331;53.362;55.932;2023-04-19T11:09:47;100984.28;;;21.02;15.53
78932;BME280;68331;53.362;55.932;2023-04-19T11:12:15;100985.69;;;20.78;15.59
78932;BME280;68331;53.362;55.932;2023-04-19T11:14:51;100981.44;;;20.89;15.62
78932;BME280;68331;53.362;55.932;2023-04-19T11:17:20;100976.56;;;21.12;15.78
78932;BME280;68331;53.362;55.932;2023-04-19T11:20:01;100970.94;;;21.32;15.21
78932;BME280;68331;53.362;55.932;2023-04-19T11:22:31;100978.22;;;21.14;15.52
78932;BME280;68331;53.362;55.932;2023-04-19T11:25:05;100977.53;;;20.63;16.33
78932;BME280;68331;53.362;55.932;2023-04-19T11:27:32;100977.50;;;20.48;16.33
78932;BME280;68331;53.362;55.932;2023-04-19T11:30:03;100972.53;;;20.57;16.06
78932;BME280;68331;53.362;55.932;2023-04-19T11:32:30;100965.69;;;20.67;16.10
78932;BME280;68331;53.362;55.932;2023-04-19T11:34:57;100968.75;;;20.93;15.98
78932;BME280;68331;53.362;55.932;2023-04-19T11:37:23;100967.56;;;21.29;15.27
78932;BME280;68331;53.362;55.932;2023-04-19T11:39:49;100961.06;;;21.63;15.37
78932;BME280;68331;53.362;55.932;2023-04-19T11:42:19;100948.06;;;21.71;15.24
78932;BME280;68331;53.362;55.932;2023-04-19T11:44:50;100954.16;;;21.59;15.53
78932;BME280;68331;53.362;55.932;2023-04-19T11:47:17;100955.81;;;21.16;15.48
78932;BME280;68331;53.362;55.932;2023-04-19T11:49:43;100956.28;;;20.76;15.62
78932;BME280;68331;53.362;55.932;2023-04-19T11:52:09;100958.66;;;20.49;15.82
78932;BME280;68331;53.362;55.932;2023-04-19T11:54:35;100953.34;;;20.65;15.64
78932;BME280;68331;53.362;55.932;2023-04-19T11:57:06;100959.22;;;21.03;15.61
78932;BME280;68331;53.362;55.932;2023-04-19T11:59:36;100942.16;;;21.34;14.94
78932;BME280;68331;53.362;55.932;2023-04-19T12:02:09;100934.09;;;21.34;14.57
78932;BME280;68331;53.362;55.932;2023-04-19T12:04:36;100944.69;;;21.22;14.86
78932;BME280;68331;53.362;55.932;2023-04-19T12:07:04;100941.66;;;21.44;14.26
78932;BME280;68331;53.362;55.932;2023-04-19T12:09:34;100937.91;;;21.46;14.68
78932;BME280;68331;53.362;55.932;2023-04-19T12:12:02;100935.72;;;21.23;14.54
78932;BME280;68331;53.362;55.932;2023-04-19T12:14:28;100953.88;;;20.72;15.11
78932;BME280;68331;53.362;55.932;2023-04-19T12:19:34;100949.66;;;20.01;15.79
78932;BME280;68331;53.362;55.932;2023-04-19T12:22:09;100943.84;;;19.93;16.12
78932;BME280;68331;53.362;55.932;2023-04-19T12:24:36;100941.31;;;19.90;16.28
78932;BME280;68331;53.362;55.932;2023-04-19T12:27:02;100939.28;;;19.95;16.30
78932;BME280;68331;53.362;55.932;2023-04-19T12:29:28;100947.00;;;19.84;16.49
78932;BME280;68331;53.362;55.932;2023-04-19T12:31:54;100941.34;;;19.72;16.64
78932;BME280;68331;53.362;55.932;2023-04-19T12:34:20;100942.69;;;19.64;16.62
78932;BME280;68331;53.362;55.932;2023-04-19T12:36:46;100936.75;;;19.57;16.75
78932;BME280;68331;53.362;55.932;2023-04-19T12:39:12;100926.38;;;19.51;16.73
78932;BME280;68331;53.362;55.932;2023-04-19T12:41:38;100942.59;;;19.48;16.61
78932;BME280;68331;53.362;55.932;2023-04-19T12:44:04;100928.16;;;19.33;16.57
78932;BME280;68331;53.362;55.932;2023-04-19T12:46:30;100927.78;;;19.23;16.50
78932;BME280;68331;53.362;55.932;2023-04-19T12:48:56;100927.97;;;19.01;16.75
78932;BME280;68331;53.362;55.932;2023-04-19T12:51:22;100927.66;;;18.90;16.76
78932;BME280;68331;53.362;55.932;2023-04-19T12:53:48;100928.47;;;18.92;16.79
78932;BME280;68331;53.362;55.932;2023-04-19T12:56:16;100926.56;;;18.94;16.79
78932;BME280;68331;53.362;55.932;2023-04-19T12:58:42;100903.88;;;18.84;16.13
78932;BME280;68331;53.362;55.932;2023-04-19T13:01:08;100929.16;;;18.96;16.32